Time;durP1;ratioP1;P1;durP2;ratioP2;P2;SDS_P1;SDS_P2;PMS_P1;PMS_P2;Temp;Humidity;BMP_temperature;BMP_pressure;BME280_temperature;BME280_humidity;BME280_pressure;Samples;Min_cycle;Max_cycle;Signal;HPM_P1;HPM_P2
2022/11/29 00:00:36;;;;;;;171.43;29.97;;;;;;;;;;5093518;28;20370;-83
2022/11/29 00:03:02;;;;;;;186.00;31.10;;;;;;;;;;5092065;28;20773;-83
2022/11/29 00:05:29;;;;;;;163.17;29.43;;;;;;;;;;5093364;28;20288;-83
2022/11/29 00:07:55;;;;;;;178.70;31.93;;;;;;;;;;5092776;28;20337;-84
2022/11/29 00:10:21;;;;;;;116.77;24.43;;;;;;;;;;5092069;28;20373;-84
2022/11/29 00:12:47;;;;;;;119.67;26.87;;;;;;;;;;5091922;28;20633;-84
2022/11/29 00:15:13;;;;;;;169.03;28.20;;;;;;;;;;5093057;28;20680;-83
2022/11/29 00:17:39;;;;;;;114.50;22.70;;;;;;;;;;5092170;28;20288;-83
2022/11/29 00:20:06;;;;;;;122.13;22.97;;;;;;;;;;5092987;28;20335;-83
2022/11/29 00:22:32;;;;;;;95.77;23.20;;;;;;;;;;5092229;28;20368;-83
2022/11/29 00:24:58;;;;;;;124.33;24.67;;;;;;;;;;5075146;28;20314;-84
2022/11/29 00:27:24;;;;;;;161.50;28.37;;;;;;;;;;5093070;28;20373;-83
2022/11/29 00:29:50;;;;;;;137.30;27.60;;;;;;;;;;5092820;28;20289;-84
2022/11/29 00:32:16;;;;;;;114.47;23.93;;;;;;;;;;5093084;28;20274;-84
2022/11/29 00:34:42;;;;;;;131.57;26.03;;;;;;;;;;5093093;28;20369;-84
2022/11/29 00:37:09;;;;;;;95.37;25.20;;;;;;;;;;5091671;28;20289;-83
2022/11/29 00:39:35;;;;;;;137.23;28.63;;;;;;;;;;5092986;28;20282;-83
2022/11/29 00:42:01;;;;;;;65.43;17.43;;;;;;;;;;5091867;28;20318;-84
2022/11/29 00:44:27;;;;;;;107.20;25.70;;;;;;;;;;5092669;28;20290;-84
2022/11/29 00:46:53;;;;;;;98.13;25.10;;;;;;;;;;5091689;28;20290;-84
2022/11/29 00:49:19;;;;;;;116.83;26.67;;;;;;;;;;5091714;28;20389;-84
2022/11/29 00:51:46;;;;;;;94.37;22.87;;;;;;;;;;5091946;28;20286;-84
2022/11/29 00:54:12;;;;;;;111.37;24.40;;;;;;;;;;5093233;28;20321;-84
2022/11/29 00:56:38;;;;;;;73.17;21.20;;;;;;;;;;5092646;28;20349;-84
2022/11/29 00:59:04;;;;;;;44.43;16.97;;;;;;;;;;5091354;28;20975;-84
2022/11/29 01:01:30;;;;;;;60.43;19.77;;;;;;;;;;5074733;28;20380;-84
2022/11/29 01:03:57;;;;;;;67.13;19.63;;;;;;;;;;5092502;28;20312;-84
2022/11/29 01:06:23;;;;;;;75.60;20.27;;;;;;;;;;5092759;28;20289;-84
2022/11/29 01:08:49;;;;;;;66.47;20.83;;;;;;;;;;5092500;28;20337;-84
2022/11/29 01:11:20;;;;;;;108.57;24.47;;;;;;;;;;5092822;28;20289;-84
2022/11/29 01:13:46;;;;;;;51.37;18.23;;;;;;;;;;5092678;28;20285;-84
2022/11/29 01:16:14;;;;;;;96.23;23.30;;;;;;;;;;5092431;28;20351;-84
2022/11/29 01:18:40;;;;;;;99.33;24.37;;;;;;;;;;5091349;28;20680;-84
2022/11/29 01:21:09;;;;;;;59.70;19.10;;;;;;;;;;5091415;28;20408;-84
2022/11/29 01:23:35;;;;;;;67.37;21.33;;;;;;;;;;5092625;28;20285;-84
2022/11/29 01:26:04;;;;;;;48.10;17.20;;;;;;;;;;5092221;28;20278;-84
2022/11/29 01:28:30;;;;;;;37.70;15.77;;;;;;;;;;5094895;28;20777;-84
2022/11/29 01:30:56;;;;;;;80.97;22.13;;;;;;;;;;5094953;28;20282;-84
2022/11/29 01:33:22;;;;;;;72.97;21.97;;;;;;;;;;5095203;28;20275;-84
2022/11/29 01:35:49;;;;;;;53.43;19.90;;;;;;;;;;5096182;28;20285;-84
2022/11/29 01:38:16;;;;;;;54.90;18.07;;;;;;;;;;5095744;28;20285;-83
2022/11/29 01:40:42;;;;;;;34.47;15.60;;;;;;;;;;5095824;28;20775;-84
2022/11/29 01:43:12;;;;;;;59.10;18.77;;;;;;;;;;5095767;28;20353;-85
2022/11/29 01:45:39;;;;;;;32.60;14.93;;;;;;;;;;5094675;28;20643;-84
2022/11/29 01:48:05;;;;;;;46.80;16.73;;;;;;;;;;5095612;28;20351;-84
2022/11/29 01:50:31;;;;;;;61.43;17.97;;;;;;;;;;5095196;28;20801;-84
2022/11/29 01:52:58;;;;;;;35.70;14.17;;;;;;;;;;5095519;28;20314;-84
2022/11/29 01:55:24;;;;;;;63.17;18.77;;;;;;;;;;5095977;28;20361;-84
2022/11/29 01:57:51;;;;;;;39.83;12.50;;;;;;;;;;5095615;28;20282;-84
2022/11/29 02:00:18;;;;;;;105.43;19.33;;;;;;;;;;5095332;28;20773;-84
2022/11/29 02:02:47;;;;;;;37.63;14.03;;;;;;;;;;5094826;28;20649;-83
2022/11/29 02:05:14;;;;;;;81.30;19.13;;;;;;;;;;5094343;28;20769;-83
2022/11/29 02:07:41;;;;;;;119.50;20.83;;;;;;;;;;5095368;28;20297;-83
2022/11/29 02:10:08;;;;;;;156.90;24.20;;;;;;;;;;5077373;28;20373;-84
2022/11/29 02:12:49;;;;;;;54.07;16.20;;;;;;;;;;5095409;28;20278;-83
2022/11/29 02:15:24;;;;;;;68.17;16.90;;;;;;;;;;5095194;28;20361;-83
2022/11/29 02:18:08;;;;;;;44.00;15.45;;;;;;;;;;5095402;28;20399;-83
2022/11/29 02:20:41;;;;;;;32.70;12.95;;;;;;;;;;5095250;28;20052;-83
2022/11/29 02:23:26;;;;;;;30.73;12.57;;;;;;;;;;5093915;28;20356;-83
2022/11/29 02:26:07;;;;;;;40.00;14.30;;;;;;;;;;5093972;28;20369;-83
2022/11/29 02:28:49;;;;;;;47.13;14.00;;;;;;;;;;5095186;28;20090;-83
2022/11/29 02:31:33;;;;;;;38.83;12.83;;;;;;;;;;5093783;28;20785;-83
2022/11/29 02:34:05;;;;;;;75.10;19.10;;;;;;;;;;5094814;28;20788;-84
2022/11/29 02:36:41;;;;;;;41.37;14.80;;;;;;;;;;5094100;28;20202;-83
2022/11/29 02:39:10;;;;;;;40.47;15.27;;;;;;;;;;5093646;28;20611;-83
2022/11/29 02:41:51;;;;;;;50.77;15.70;;;;;;;;;;5094834;28;20044;-83
2022/11/29 02:44:28;;;;;;;26.10;13.37;;;;;;;;;;5094267;28;20627;-83
2022/11/29 02:46:54;;;;;;;24.23;12.23;;;;;;;;;;5094784;28;20286;-83
2022/11/29 02:49:38;;;;;;;39.33;13.43;;;;;;;;;;5094349;28;20413;-83
2022/11/29 02:52:08;;;;;;;65.67;16.33;;;;;;;;;;5094356;28;20294;-83
2022/11/29 02:54:34;;;;;;;58.13;17.33;;;;;;;;;;5110331;28;20789;-83
2022/11/29 02:57:12;;;;;;;26.87;12.57;;;;;;;;;;5094592;28;20290;-84
2022/11/29 02:59:38;;;;;;;41.77;12.93;;;;;;;;;;5094484;28;20365;-84
2022/11/29 03:02:04;;;;;;;56.97;16.60;;;;;;;;;;5093878;28;20828;-84
2022/11/29 03:04:42;;;;;;;39.00;13.47;;;;;;;;;;5094391;28;20369;-83
2022/11/29 03:07:19;;;;;;;39.53;13.57;;;;;;;;;;5093154;28;20412;-84
2022/11/29 03:10:04;;;;;;;62.33;13.90;;;;;;;;;;5094422;28;20357;-83
2022/11/29 03:12:35;;;;;;;52.40;13.98;;;;;;;;;;5094323;28;20277;-83
2022/11/29 03:15:04;;;;;;;45.07;13.67;;;;;;;;;;5110431;28;20052;-83
2022/11/29 03:17:50;;;;;;;52.57;14.87;;;;;;;;;;5094150;28;20322;-83
2022/11/29 03:20:23;;;;;;;75.30;15.80;;;;;;;;;;5105974;28;20810;-84
2022/11/29 03:23:08;;;;;;;52.97;12.83;;;;;;;;;;5094382;28;20510;-84
2022/11/29 03:25:43;;;;;;;95.40;16.47;;;;;;;;;;5093890;28;20842;-84
2022/11/29 03:28:09;;;;;;;;;;;;;;;;;;5093052;28;20305;-84
2022/11/29 03:30:36;;;;;;;83.57;15.17;;;;;;;;;;5093985;28;20010;-84
2022/11/29 03:33:08;;;;;;;118.53;16.60;;;;;;;;;;5092909;28;20378;-84
2022/11/29 03:35:40;;;;;;;54.57;14.63;;;;;;;;;;5092891;28;20298;-84
2022/11/29 03:38:18;;;;;;;110.17;17.23;;;;;;;;;;5093981;28;20757;-83
2022/11/29 03:40:51;;;;;;;45.67;12.63;;;;;;;;;;5093856;28;20317;-84
2022/11/29 03:43:27;;;;;;;82.27;15.53;;;;;;;;;;5092488;28;20278;-84
2022/11/29 03:45:58;;;;;;;95.20;16.97;;;;;;;;;;5094044;28;20293;-83
2022/11/29 03:48:30;;;;;;;70.10;14.57;;;;;;;;;;5092295;28;20301;-84
2022/11/29 03:51:00;;;;;;;41.00;13.37;;;;;;;;;;5093185;28;20278;-84
2022/11/29 03:53:35;;;;;;;76.33;16.43;;;;;;;;;;5093278;28;20288;-84
2022/11/29 03:56:02;;;;;;;41.95;12.80;;;;;;;;;;5092618;28;20843;-84
2022/11/29 03:58:46;;;;;;;62.60;15.57;;;;;;;;;;5093232;28;20138;-84
2022/11/29 04:01:19;;;;;;;91.40;16.77;;;;;;;;;;5093209;28;20308;-84
2022/11/29 04:03:58;;;;;;;83.63;17.20;;;;;;;;;;5092234;28;20286;-84
2022/11/29 04:06:42;;;;;;;38.43;13.63;;;;;;;;;;5093254;28;20627;-84
2022/11/29 04:09:28;;;;;;;80.90;15.77;;;;;;;;;;5093249;28;20308;-83
2022/11/29 04:12:01;;;;;;;64.88;15.55;;;;;;;;;;5093361;28;20349;-84
2022/11/29 04:14:33;;;;;;;90.10;15.83;;;;;;;;;;5093133;28;20048;-84
2022/11/29 04:17:02;;;;;;;75.80;16.03;;;;;;;;;;5092020;28;20309;-83
2022/11/29 04:19:31;;;;;;;45.07;12.30;;;;;;;;;;5093005;28;20289;-83
2022/11/29 04:22:16;;;;;;;48.13;14.23;;;;;;;;;;5093309;28;20676;-83
2022/11/29 04:25:01;;;;;;;71.32;16.08;;;;;;;;;;5075596;28;20296;-84
2022/11/29 04:27:48;;;;;;;56.63;14.60;;;;;;;;;;5092806;28;20135;-84
2022/11/29 04:30:22;;;;;;;96.13;17.00;;;;;;;;;;5070828;28;20586;-84
2022/11/29 04:32:48;;;;;;;45.87;13.73;;;;;;;;;;5092990;28;20289;-84
2022/11/29 04:35:24;;;;;;;50.87;14.77;;;;;;;;;;5092850;28;20355;-84
2022/11/29 04:38:09;;;;;;;77.03;15.80;;;;;;;;;;5093357;28;20592;-84
2022/11/29 04:40:35;;;;;;;54.33;14.40;;;;;;;;;;5091819;28;20373;-84
2022/11/29 04:43:07;;;;;;;45.30;13.87;;;;;;;;;;5093100;28;20274;-84
2022/11/29 04:45:46;;;;;;;58.50;16.00;;;;;;;;;;5092382;28;20294;-84
2022/11/29 04:48:28;;;;;;;44.50;15.20;;;;;;;;;;5093065;28;20297;-84
2022/11/29 04:51:21;;;;;;;52.53;15.50;;;;;;;;;;5092265;28;20305;-84
2022/11/29 04:53:50;;;;;;;51.73;15.13;;;;;;;;;;5093280;28;20351;-84
2022/11/29 04:56:25;;;;;;;62.87;17.30;;;;;;;;;;5092770;28;20755;-84
2022/11/29 04:58:57;;;;;;;81.47;18.13;;;;;;;;;;5092986;28;20637;-83
2022/11/29 05:01:50;;;;;;;80.20;17.70;;;;;;;;;;5092731;28;20130;-84
2022/11/29 05:04:39;;;;;;;77.47;16.37;;;;;;;;;;5095630;28;20333;-83
2022/11/29 05:07:07;;;;;;;66.77;18.00;;;;;;;;;;5075562;28;20297;-83
2022/11/29 05:10:03;;;;;;;53.33;15.80;;;;;;;;;;5096313;28;20479;-84
2022/11/29 05:12:32;;;;;;;40.00;14.18;;;;;;;;;;5094419;28;20381;-83
2022/11/29 05:15:25;;;;;;;62.23;16.60;;;;;;;;;;5096276;28;20044;-83
2022/11/29 05:18:10;;;;;;;34.93;14.47;;;;;;;;;;5111664;28;20322;-84
2022/11/29 05:20:42;;;;;;;48.97;16.65;;;;;;;;;;5095257;28;20783;-84
2022/11/29 05:23:27;;;;;;;60.80;16.40;;;;;;;;;;5095257;28;20091;-83
2022/11/29 05:25:53;;;;;;;57.63;17.42;;;;;;;;;;5095648;28;20361;-83
2022/11/29 05:28:28;;;;;;;46.77;16.00;;;;;;;;;;5095205;28;20036;-83
2022/11/29 05:30:54;;;;;;;;;;;;;;;;;;5096713;28;20317;-83
2022/11/29 05:33:41;;;;;;;52.90;16.67;;;;;;;;;;5096005;28;19920;-85
2022/11/29 05:36:10;;;;;;;49.53;14.13;;;;;;;;;;5084246;28;20297;-83
2022/11/29 05:38:55;;;;;;;71.80;15.60;;;;;;;;;;5094344;28;20287;-83
2022/11/29 05:41:31;;;;;;;59.03;14.80;;;;;;;;;;5096117;28;20282;-84
2022/11/29 05:44:07;;;;;;;69.20;14.87;;;;;;;;;;5095417;28;20044;-83
2022/11/29 05:46:42;;;;;;;76.70;17.00;;;;;;;;;;5095991;28;20297;-83
2022/11/29 05:49:27;;;;;;;60.67;15.73;;;;;;;;;;5094787;28;20126;-83
2022/11/29 05:52:12;;;;;;;31.55;13.55;;;;;;;;;;5095769;28;20697;-83
2022/11/29 05:54:47;;;;;;;52.03;14.57;;;;;;;;;;5094554;28;20054;-83
2022/11/29 05:57:22;;;;;;;54.28;16.00;;;;;;;;;;5095695;28;20765;-83
2022/11/29 05:59:48;;;;;;;;;;;;;;;;;;5096057;28;20105;-83
2022/11/29 06:02:20;;;;;;;28.57;13.23;;;;;;;;;;5094711;28;20481;-83
2022/11/29 06:05:05;;;;;;;33.53;13.30;;;;;;;;;;5095340;28;20357;-83
2022/11/29 06:07:37;;;;;;;20.98;12.77;;;;;;;;;;5094320;28;20754;-83
2022/11/29 06:10:10;;;;;;;35.37;13.30;;;;;;;;;;5095560;28;20558;-83
2022/11/29 06:12:36;;;;;;;28.10;12.97;;;;;;;;;;5094049;28;20312;-83
2022/11/29 06:15:16;;;;;;;37.67;14.73;;;;;;;;;;5094584;28;20293;-83
2022/11/29 06:18:01;;;;;;;38.13;14.50;;;;;;;;;;5094151;28;20286;-83
2022/11/29 06:20:27;;;;;;;;;;;;;;;;;;5094429;28;20335;-84
2022/11/29 06:23:29;;;;;;;44.87;14.57;;;;;;;;;;5095315;28;19923;-83
2022/11/29 06:26:15;;;;;;;37.20;12.70;;;;;;;;;;5092817;28;20319;-84
2022/11/29 06:29:02;;;;;;;40.67;15.13;;;;;;;;;;5094612;28;20306;-83
2022/11/29 06:31:31;;;;;;;34.20;13.47;;;;;;;;;;5094018;28;20784;-84
2022/11/29 06:34:11;;;;;;;33.77;14.33;;;;;;;;;;5095129;28;20289;-82
2022/11/29 06:36:56;;;;;;;54.67;14.77;;;;;;;;;;5094918;28;20295;-83
2022/11/29 06:39:22;;;;;;;60.63;16.23;;;;;;;;;;5077051;28;20339;-83
2022/11/29 06:41:48;;;;;;;40.83;13.77;;;;;;;;;;5094620;28;20576;-82
2022/11/29 06:44:16;;;;;;;29.50;13.27;;;;;;;;;;5077061;28;20692;-83
2022/11/29 06:46:45;;;;;;;70.97;15.03;;;;;;;;;;5094533;28;20294;-84
2022/11/29 06:49:22;;;;;;;50.17;14.33;;;;;;;;;;5094723;28;20294;-83
2022/11/29 06:51:54;;;;;;;44.90;14.20;;;;;;;;;;5093493;28;20329;-83
2022/11/29 06:54:39;;;;;;;56.77;13.53;;;;;;;;;;5094963;28;20321;-84
2022/11/29 06:57:08;;;;;;;71.97;14.33;;;;;;;;;;5094727;28;20691;-84
2022/11/29 06:59:43;;;;;;;57.70;14.10;;;;;;;;;;5094206;28;20290;-84
2022/11/29 07:02:21;;;;;;;49.97;14.13;;;;;;;;;;5094556;28;20274;-84
2022/11/29 07:05:06;;;;;;;54.13;15.57;;;;;;;;;;5093259;28;20051;-83
2022/11/29 07:07:33;;;;;;;38.72;13.15;;;;;;;;;;5094161;28;20282;-83
2022/11/29 07:10:01;;;;;;;45.97;13.87;;;;;;;;;;5094114;28;20079;-83
2022/11/29 07:12:27;;;;;;;50.70;15.73;;;;;;;;;;5094256;28;20365;-81
2022/11/29 07:14:54;;;;;;;75.57;17.83;;;;;;;;;;5094074;28;20613;-81
2022/11/29 07:17:37;;;;;;;39.70;16.07;;;;;;;;;;5076390;28;20294;-80
2022/11/29 07:20:27;;;;;;;39.17;15.80;;;;;;;;;;5076451;28;20377;-80
2022/11/29 07:22:59;;;;;;;30.07;14.43;;;;;;;;;;5093895;28;20378;-80
2022/11/29 07:25:44;;;;;;;33.33;14.17;;;;;;;;;;5092332;28;20721;-81
2022/11/29 07:28:13;;;;;;;25.40;13.20;;;;;;;;;;5093855;28;20301;-80
2022/11/29 07:30:51;;;;;;;31.60;13.27;;;;;;;;;;5092641;28;20290;-80
2022/11/29 07:33:29;;;;;;;37.00;15.00;;;;;;;;;;5093793;28;20301;-81
2022/11/29 07:36:14;;;;;;;43.07;16.20;;;;;;;;;;5093678;28;21344;-80
2022/11/29 07:38:49;;;;;;;24.38;12.38;;;;;;;;;;5093491;28;20282;-81
2022/11/29 07:41:36;;;;;;;36.25;14.18;;;;;;;;;;5093770;28;20074;-79
2022/11/29 07:44:31;;;;;;;40.03;15.37;;;;;;;;;;5092783;28;20556;-79
2022/11/29 07:46:57;;;;;;;40.83;16.88;;;;;;;;;;5073387;28;20389;-79
2022/11/29 07:49:24;;;;;;;35.57;15.60;;;;;;;;;;5093773;28;20148;-79
2022/11/29 07:51:50;;;;;;;33.63;14.47;;;;;;;;;;5093293;28;20294;-80
2022/11/29 07:54:17;;;;;;;32.13;13.93;;;;;;;;;;5093493;28;20361;-80
2022/11/29 07:56:43;;;;;;;35.90;15.30;;;;;;;;;;5093234;28;20289;-80
2022/11/29 07:59:11;;;;;;;29.90;14.07;;;;;;;;;;5093644;28;20325;-81
2022/11/29 08:01:37;;;;;;;29.70;14.00;;;;;;;;;;5093464;28;20286;-79
2022/11/29 08:04:03;;;;;;;38.33;15.07;;;;;;;;;;5093528;28;20836;-77
2022/11/29 08:06:29;;;;;;;42.90;15.57;;;;;;;;;;5093388;28;20285;-79
2022/11/29 08:08:59;;;;;;;31.87;14.30;;;;;;;;;;5091896;28;20807;-79
2022/11/29 08:11:25;;;;;;;35.77;14.80;;;;;;;;;;5093426;28;20286;-79
2022/11/29 08:13:58;;;;;;;28.83;13.67;;;;;;;;;;5093014;28;20755;-79
2022/11/29 08:16:25;;;;;;;39.03;13.87;;;;;;;;;;5093335;28;20282;-79
2022/11/29 08:18:51;;;;;;;41.73;14.03;;;;;;;;;;5093090;28;20281;-78
2022/11/29 08:21:17;;;;;;;37.90;14.93;;;;;;;;;;5092279;28;20339;-78
2022/11/29 08:23:47;;;;;;;32.60;13.17;;;;;;;;;;5093055;28;20323;-78
2022/11/29 08:26:13;;;;;;;36.73;14.60;;;;;;;;;;5093182;28;20784;-78
2022/11/29 08:28:39;;;;;;;45.17;15.03;;;;;;;;;;5092026;28;20301;-78
2022/11/29 08:31:07;;;;;;;40.30;15.77;;;;;;;;;;5091756;28;20371;-78
2022/11/29 08:33:38;;;;;;;36.67;14.20;;;;;;;;;;5093104;28;20285;-78
2022/11/29 08:36:08;;;;;;;41.70;15.93;;;;;;;;;;5075703;28;20376;-77
2022/11/29 08:38:34;;;;;;;40.27;14.50;;;;;;;;;;5097342;28;20353;-76
2022/11/29 08:41:01;;;;;;;35.13;13.47;;;;;;;;;;5096614;28;20781;-77
2022/11/29 08:43:28;;;;;;;29.47;11.73;;;;;;;;;;5097384;28;20335;-77
2022/11/29 08:45:54;;;;;;;31.97;13.20;;;;;;;;;;5096850;28;20366;-78
2022/11/29 08:48:20;;;;;;;29.63;11.90;;;;;;;;;;5097170;28;20305;-76
2022/11/29 08:50:48;;;;;;;33.43;11.97;;;;;;;;;;5095832;28;20852;-77
2022/11/29 08:55:59;;;;;;;34.67;11.97;;;;;;;;;;5095844;28;20374;-78
2022/11/29 08:58:25;;;;;;;32.17;11.40;;;;;;;;;;5096931;28;20278;-77
2022/11/29 09:00:52;;;;;;;29.13;13.00;;;;;;;;;;5096650;28;20365;-77
2022/11/29 09:06:07;;;;;;;36.15;11.52;;;;;;;;;;5096578;28;20322;-78
2022/11/29 09:08:33;;;;;;;37.30;10.93;;;;;;;;;;5096572;28;20036;-77
2022/11/29 09:10:59;;;;;;;34.83;10.90;;;;;;;;;;5096368;28;20357;-80
2022/11/29 09:13:25;;;;;;;30.30;10.80;;;;;;;;;;5096755;28;20304;-79
2022/11/29 09:15:51;;;;;;;34.17;10.10;;;;;;;;;;5095286;28;20294;-78
2022/11/29 09:18:17;;;;;;;35.13;11.30;;;;;;;;;;5096526;28;20274;-78
2022/11/29 09:20:44;;;;;;;36.57;10.60;;;;;;;;;;5112540;28;20696;-80
2022/11/29 09:23:11;;;;;;;41.30;12.00;;;;;;;;;;5096166;28;20633;-78
2022/11/29 09:25:37;;;;;;;33.03;12.03;;;;;;;;;;5096530;28;20289;-79
2022/11/29 09:28:04;;;;;;;37.53;12.23;;;;;;;;;;5096020;28;20302;-80
2022/11/29 09:30:31;;;;;;;39.53;11.70;;;;;;;;;;5096351;28;20285;-77
2022/11/29 09:32:59;;;;;;;37.57;10.93;;;;;;;;;;5095966;28;20290;-80
2022/11/29 09:35:25;;;;;;;40.03;10.53;;;;;;;;;;5096201;28;20278;-80
2022/11/29 09:37:51;;;;;;;30.17;9.67;;;;;;;;;;5094719;28;20361;-80
2022/11/29 09:40:19;;;;;;;33.20;9.40;;;;;;;;;;5096030;28;20274;-79
2022/11/29 09:42:55;;;;;;;26.93;10.07;;;;;;;;;;5096169;28;20365;-79
2022/11/29 09:45:33;;;;;;;32.53;10.53;;;;;;;;;;5095202;28;20781;-80
2022/11/29 09:48:00;;;;;;;33.37;10.13;;;;;;;;;;5094143;28;20829;-82
2022/11/29 09:50:33;;;;;;;26.57;10.17;;;;;;;;;;5096125;28;20287;-80
2022/11/29 09:53:17;;;;;;;45.73;10.60;;;;;;;;;;5095683;28;20711;-80
2022/11/29 09:55:43;;;;;;;31.70;10.43;;;;;;;;;;5095913;28;20285;-78
2022/11/29 09:58:12;;;;;;;34.53;10.67;;;;;;;;;;5094095;28;20297;-74
2022/11/29 10:00:42;;;;;;;35.87;10.30;;;;;;;;;;5095907;28;20325;-73
2022/11/29 10:03:24;;;;;;;31.43;11.37;;;;;;;;;;5095335;28;20274;-74
2022/11/29 10:06:10;;;;;;;29.17;11.13;;;;;;;;;;5094661;28;20355;-74
2022/11/29 10:08:40;;;;;;;38.33;10.97;;;;;;;;;;5094223;28;20309;-74
2022/11/29 10:11:16;;;;;;;33.87;11.47;;;;;;;;;;5095249;28;20282;-74
2022/11/29 10:13:44;;;;;;;32.20;11.00;;;;;;;;;;5095531;28;20319;-74
2022/11/29 10:16:18;;;;;;;40.00;11.40;;;;;;;;;;5094957;28;20048;-76
2022/11/29 10:19:03;;;;;;;29.67;10.80;;;;;;;;;;5095546;28;20286;-75
2022/11/29 10:21:32;;;;;;;34.70;10.38;;;;;;;;;;5103423;28;20356;-75
2022/11/29 10:24:00;;;;;;;32.20;11.80;;;;;;;;;;5101634;28;20048;-74
2022/11/29 10:26:27;;;;;;;41.53;12.57;;;;;;;;;;5103244;28;20352;-80
2022/11/29 10:28:56;;;;;;;36.07;12.20;;;;;;;;;;5088153;28;20304;-80
2022/11/29 10:31:31;;;;;;;43.60;12.80;;;;;;;;;;5114376;28;20313;-75
2022/11/29 10:33:59;;;;;;;34.08;12.43;;;;;;;;;;5115264;28;20281;-83
2022/11/29 10:36:33;;;;;;;31.73;9.70;;;;;;;;;;5115370;28;20075;-80
2022/11/29 10:39:05;;;;;;;32.25;9.15;;;;;;;;;;5115159;28;20277;-80
2022/11/29 10:41:31;;;;;;;31.93;9.37;;;;;;;;;;5115409;28;20075;-80
2022/11/29 10:43:58;;;;;;;33.33;9.83;;;;;;;;;;5114415;28;20290;-79
2022/11/29 10:46:30;;;;;;;38.37;10.40;;;;;;;;;;5114189;28;20289;-80
2022/11/29 10:48:57;;;;;;;30.73;9.07;;;;;;;;;;5114888;28;20749;-79
2022/11/29 10:51:24;;;;;;;35.77;10.20;;;;;;;;;;5114606;28;20758;-79
2022/11/29 10:53:51;;;;;;;36.77;10.27;;;;;;;;;;5114282;28;20285;-79
2022/11/29 10:56:28;;;;;;;36.33;9.70;;;;;;;;;;5114623;28;20313;-79
2022/11/29 10:59:06;;;;;;;27.93;8.63;;;;;;;;;;5110238;28;20274;-80
2022/11/29 11:01:41;;;;;;;33.80;9.00;;;;;;;;;;5092927;28;20278;-79
2022/11/29 11:04:13;;;;;;;22.88;7.82;;;;;;;;;;5092918;28;20322;-80
2022/11/29 11:06:50;;;;;;;28.20;7.90;;;;;;;;;;5093622;28;20131;-79
2022/11/29 11:09:16;;;;;;;29.37;8.83;;;;;;;;;;5094076;28;20294;-79
2022/11/29 11:11:49;;;;;;;24.27;8.70;;;;;;;;;;5094354;28;20324;-79
2022/11/29 11:14:20;;;;;;;30.03;8.03;;;;;;;;;;5094057;28;20297;-79
2022/11/29 11:16:47;;;;;;;27.07;8.00;;;;;;;;;;5094254;28;20289;-79
2022/11/29 11:19:26;;;;;;;26.43;8.30;;;;;;;;;;5093944;28;20323;-79
2022/11/29 11:21:53;;;;;;;27.63;8.47;;;;;;;;;;5093877;28;20321;-79
2022/11/29 11:24:27;;;;;;;29.40;8.00;;;;;;;;;;5093852;28;20673;-79
2022/11/29 11:26:54;;;;;;;30.80;7.85;;;;;;;;;;5094119;28;20281;-79
2022/11/29 11:29:22;;;;;;;33.40;8.20;;;;;;;;;;5093687;28;20047;-79
2022/11/29 11:32:11;;;;;;;21.07;8.17;;;;;;;;;;5076153;28;20347;-79
2022/11/29 11:34:38;;;;;;;27.37;8.00;;;;;;;;;;5093407;28;20777;-80
2022/11/29 11:37:19;;;;;;;33.90;9.03;;;;;;;;;;5092534;28;20281;-79
2022/11/29 11:39:46;;;;;;;40.23;9.70;;;;;;;;;;5093763;28;20286;-80
2022/11/29 11:44:59;;;;;;;30.37;11.23;;;;;;;;;;5093587;28;20278;-79
2022/11/29 11:47:26;;;;;;;28.13;11.67;;;;;;;;;;5092195;28;20308;-76
2022/11/29 11:49:54;;;;;;;32.30;11.80;;;;;;;;;;5092411;28;20396;-79
2022/11/29 11:52:26;;;;;;;31.50;12.10;;;;;;;;;;5093317;28;20328;-80
2022/11/29 11:54:57;;;;;;;29.77;11.97;;;;;;;;;;5093608;28;20362;-81
2022/11/29 11:57:24;;;;;;;26.63;11.07;;;;;;;;;;5093230;28;20364;-80
2022/11/29 11:59:51;;;;;;;34.70;11.67;;;;;;;;;;5093173;28;20850;-79
2022/11/29 12:02:36;;;;;;;34.70;12.43;;;;;;;;;;5093251;28;20278;-80
2022/11/29 12:05:04;;;;;;;32.30;12.30;;;;;;;;;;5092687;28;20290;-80
2022/11/29 12:07:33;;;;;;;30.37;12.17;;;;;;;;;;5093241;28;20059;-79
2022/11/29 12:10:02;;;;;;;29.60;13.03;;;;;;;;;;5093354;28;20416;-80
2022/11/29 12:12:28;;;;;;;26.83;12.87;;;;;;;;;;5091485;28;20322;-79
2022/11/29 12:14:54;;;;;;;22.73;11.93;;;;;;;;;;5092273;28;20290;-81
2022/11/29 12:17:26;;;;;;;23.90;12.50;;;;;;;;;;5092063;28;20290;-78
2022/11/29 12:19:59;;;;;;;19.47;10.83;;;;;;;;;;5098544;28;20357;-81
2022/11/29 12:22:28;;;;;;;17.80;11.40;;;;;;;;;;5097344;28;20282;-80
2022/11/29 12:24:57;;;;;;;24.17;12.73;;;;;;;;;;5093506;28;20310;-80
2022/11/29 12:27:23;;;;;;;19.73;11.73;;;;;;;;;;5092889;28;20784;-78
2022/11/29 12:29:49;;;;;;;24.37;12.67;;;;;;;;;;5075137;28;20384;-78
2022/11/29 12:32:24;;;;;;;25.17;13.27;;;;;;;;;;5091844;28;20317;-78
2022/11/29 12:35:06;;;;;;;17.27;11.80;;;;;;;;;;5093135;28;20336;-78
2022/11/29 12:37:36;;;;;;;18.10;12.07;;;;;;;;;;5092862;28;20056;-78
2022/11/29 12:40:17;;;;;;;17.50;11.30;;;;;;;;;;5093059;28;20278;-78
2022/11/29 12:43:02;;;;;;;17.07;10.60;;;;;;;;;;5092898;28;20783;-78
2022/11/29 12:45:31;;;;;;;18.70;11.65;;;;;;;;;;5092413;28;20282;-78
2022/11/29 12:47:57;;;;;;;17.00;11.70;;;;;;;;;;5092975;28;20052;-78
2022/11/29 12:50:30;;;;;;;25.47;12.97;;;;;;;;;;5091363;28;20315;-78
2022/11/29 12:53:05;;;;;;;20.87;12.53;;;;;;;;;;5092952;28;20288;-78
2022/11/29 12:55:47;;;;;;;23.67;11.60;;;;;;;;;;5091730;28;20721;-78
2022/11/29 12:58:18;;;;;;;15.63;11.00;;;;;;;;;;5093026;28;20271;-78
2022/11/29 13:01:05;;;;;;;17.00;9.67;;;;;;;;;;5092275;28;20286;-78
2022/11/29 13:04:06;;;;;;;17.50;10.63;;;;;;;;;;5080941;28;20340;-78
2022/11/29 13:06:38;;;;;;;15.77;11.17;;;;;;;;;;5050017;28;20382;-78
2022/11/29 13:09:15;;;;;;;17.27;11.70;;;;;;;;;;5081267;28;20316;-78
2022/11/29 13:11:45;;;;;;;21.17;11.40;;;;;;;;;;5093197;28;20347;-78
2022/11/29 13:14:22;;;;;;;18.07;12.13;;;;;;;;;;5091732;28;20369;-78
2022/11/29 13:16:51;;;;;;;22.57;13.43;;;;;;;;;;5093016;28;20634;-78
2022/11/29 13:19:29;;;;;;;19.37;12.83;;;;;;;;;;5092473;28;20278;-82
2022/11/29 13:22:18;;;;;;;20.47;14.07;;;;;;;;;;5092770;28;20285;-78
2022/11/29 13:24:53;;;;;;;18.23;11.13;;;;;;;;;;5095173;28;20702;-78
2022/11/29 13:27:22;;;;;;;18.52;12.23;;;;;;;;;;5096130;28;20286;-79
2022/11/29 13:29:49;;;;;;;19.33;11.83;;;;;;;;;;5096125;28;20055;-78
2022/11/29 13:32:34;;;;;;;17.97;12.17;;;;;;;;;;5096291;28;20706;-78
2022/11/29 13:35:20;;;;;;;20.83;11.93;;;;;;;;;;5095591;28;20297;-78
2022/11/29 13:38:07;;;;;;;20.77;14.33;;;;;;;;;;5096225;28;20049;-79
2022/11/29 13:40:33;;;;;;;25.70;15.87;;;;;;;;;;5095559;28;20309;-79
2022/11/29 13:43:17;;;;;;;19.57;14.13;;;;;;;;;;5094813;28;20301;-76
2022/11/29 13:45:51;;;;;;;21.20;13.70;;;;;;;;;;5095526;28;20360;-77
2022/11/29 13:48:33;;;;;;;21.00;14.30;;;;;;;;;;5098051;28;20298;-78
2022/11/29 13:51:19;;;;;;;19.30;12.77;;;;;;;;;;5093038;28;20282;-79
2022/11/29 13:53:45;;;;;;;20.37;12.57;;;;;;;;;;5094033;28;20321;-78
2022/11/29 13:56:24;;;;;;;18.03;11.17;;;;;;;;;;5095305;28;20301;-78
2022/11/29 13:58:53;;;;;;;19.17;10.20;;;;;;;;;;5095379;28;20302;-79
2022/11/29 14:01:21;;;;;;;15.63;10.80;;;;;;;;;;5094400;28;20333;-75
2022/11/29 14:04:01;;;;;;;18.27;10.90;;;;;;;;;;5095665;28;20325;-75
2022/11/29 14:06:32;;;;;;;13.93;9.30;;;;;;;;;;5095390;28;20278;-76
2022/11/29 14:09:37;;;;;;;14.40;10.30;;;;;;;;;;5111471;28;20306;-78
2022/11/29 14:12:19;;;;;;;12.30;7.87;;;;;;;;;;5072885;28;20366;-76
2022/11/29 14:14:53;;;;;;;11.13;6.63;;;;;;;;;;5069682;28;20332;-77
2022/11/29 14:17:38;;;;;;;13.02;7.43;;;;;;;;;;5081266;28;20374;-80
2022/11/29 14:20:23;;;;;;;12.77;8.07;;;;;;;;;;5093047;28;20058;-82
2022/11/29 14:23:22;;;;;;;11.85;7.72;;;;;;;;;;5094527;28;20282;-83
2022/11/29 14:25:54;;;;;;;8.90;6.80;;;;;;;;;;5080890;28;20123;-81
2022/11/29 14:28:20;;;;;;;8.47;6.27;;;;;;;;;;5094689;28;20314;-85
2022/11/29 14:30:51;;;;;;;8.47;5.80;;;;;;;;;;5094397;28;20286;-81
2022/11/29 14:33:36;;;;;;;8.57;6.27;;;;;;;;;;5091624;28;20286;-82
2022/11/29 14:36:17;;;;;;;7.22;6.13;;;;;;;;;;5093010;28;20290;-78
2022/11/29 14:38:49;;;;;;;8.20;6.00;;;;;;;;;;5093033;28;20036;-78
2022/11/29 14:41:35;;;;;;;11.77;7.97;;;;;;;;;;5091151;28;20340;-76
2022/11/29 14:44:24;;;;;;;10.13;8.73;;;;;;;;;;5099199;28;20282;-77
2022/11/29 14:47:03;;;;;;;11.00;8.43;;;;;;;;;;5087578;28;20774;-77
2022/11/29 14:49:30;;;;;;;14.77;11.67;;;;;;;;;;5092577;28;20302;-77
2022/11/29 14:52:26;;;;;;;9.90;8.87;;;;;;;;;;5099944;28;20372;-77
2022/11/29 14:54:52;;;;;;;13.13;8.20;;;;;;;;;;5091114;28;20335;-78
2022/11/29 14:57:41;;;;;;;13.90;10.10;;;;;;;;;;5102614;28;20079;-77
2022/11/29 15:00:11;;;;;;;14.23;8.90;;;;;;;;;;5083121;28;20316;-77